sensor_id;sensor_type;location;lat;lon;timestamp;P1;durP1;ratioP1;P2;durP2;ratioP2
49962;SDS011;36180;57.678;11.910;2023-04-24T00:00:28;41.22;;;26.65;;
49962;SDS011;36180;57.678;11.910;2023-04-24T00:02:57;33.67;;;26.10;;
49962;SDS011;36180;57.678;11.910;2023-04-24T00:05:24;38.47;;;27.30;;
49962;SDS011;36180;57.678;11.910;2023-04-24T00:07:52;38.70;;;27.90;;
49962;SDS011;36180;57.678;11.910;2023-04-24T00:10:19;37.95;;;26.70;;
49962;SDS011;36180;57.678;11.910;2023-04-24T00:12:46;37.83;;;27.08;;
49962;SDS011;36180;57.678;11.910;2023-04-24T00:15:13;38.13;;;27.27;;
49962;SDS011;36180;57.678;11.910;2023-04-24T00:17:40;33.70;;;25.63;;
49962;SDS011;36180;57.678;11.910;2023-04-24T00:20:09;37.08;;;26.40;;
49962;SDS011;36180;57.678;11.910;2023-04-24T00:22:37;34.38;;;25.80;;
49962;SDS011;36180;57.678;11.910;2023-04-24T00:25:04;38.70;;;26.90;;
49962;SDS011;36180;57.678;11.910;2023-04-24T00:27:32;35.67;;;26.58;;
49962;SDS011;36180;57.678;11.910;2023-04-24T00:30:00;37.85;;;26.88;;
49962;SDS011;36180;57.678;11.910;2023-04-24T00:32:27;35.22;;;27.23;;
49962;SDS011;36180;57.678;11.910;2023-04-24T00:34:54;34.80;;;26.98;;
49962;SDS011;36180;57.678;11.910;2023-04-24T00:37:23;34.50;;;26.35;;
49962;SDS011;36180;57.678;11.910;2023-04-24T00:39:50;36.15;;;26.35;;
49962;SDS011;36180;57.678;11.910;2023-04-24T00:42:17;35.28;;;25.48;;
49962;SDS011;36180;57.678;11.910;2023-04-24T00:44:44;33.92;;;25.80;;
49962;SDS011;36180;57.678;11.910;2023-04-24T00:47:11;37.90;;;26.90;;
49962;SDS011;36180;57.678;11.910;2023-04-24T00:49:39;37.45;;;25.70;;
49962;SDS011;36180;57.678;11.910;2023-04-24T00:52:06;35.58;;;26.92;;
49962;SDS011;36180;57.678;11.910;2023-04-24T00:54:35;37.55;;;27.15;;
49962;SDS011;36180;57.678;11.910;2023-04-24T00:57:02;39.38;;;28.33;;
49962;SDS011;36180;57.678;11.910;2023-04-24T00:59:30;34.97;;;26.90;;
49962;SDS011;36180;57.678;11.910;2023-04-24T01:01:57;36.92;;;28.23;;
49962;SDS011;36180;57.678;11.910;2023-04-24T01:04:25;35.40;;;26.67;;
49962;SDS011;36180;57.678;11.910;2023-04-24T01:06:52;37.63;;;27.27;;
49962;SDS011;36180;57.678;11.910;2023-04-24T01:09:19;37.45;;;26.48;;
49962;SDS011;36180;57.678;11.910;2023-04-24T01:11:49;33.25;;;26.00;;
49962;SDS011;36180;57.678;11.910;2023-04-24T01:14:17;37.25;;;26.30;;
49962;SDS011;36180;57.678;11.910;2023-04-24T01:20:45;32.25;;;25.75;;
49962;SDS011;36180;57.678;11.910;2023-04-24T01:23:14;37.28;;;26.83;;
49962;SDS011;36180;57.678;11.910;2023-04-24T01:25:43;35.05;;;25.23;;
49962;SDS011;36180;57.678;11.910;2023-04-24T01:28:10;33.67;;;25.00;;
49962;SDS011;36180;57.678;11.910;2023-04-24T01:30:39;34.33;;;25.75;;
49962;SDS011;36180;57.678;11.910;2023-04-24T01:33:06;37.38;;;25.77;;
49962;SDS011;36180;57.678;11.910;2023-04-24T01:35:33;37.15;;;25.83;;
49962;SDS011;36180;57.678;11.910;2023-04-24T01:38:01;37.15;;;25.73;;
49962;SDS011;36180;57.678;11.910;2023-04-24T01:40:29;37.20;;;26.50;;
49962;SDS011;36180;57.678;11.910;2023-04-24T01:42:57;34.00;;;25.40;;
49962;SDS011;36180;57.678;11.910;2023-04-24T01:45:24;33.50;;;26.20;;
49962;SDS011;36180;57.678;11.910;2023-04-24T01:47:51;33.90;;;26.20;;
49962;SDS011;36180;57.678;11.910;2023-04-24T01:50:18;35.63;;;25.63;;
49962;SDS011;36180;57.678;11.910;2023-04-24T01:52:46;31.60;;;24.83;;
49962;SDS011;36180;57.678;11.910;2023-04-24T01:55:13;35.50;;;25.52;;
49962;SDS011;36180;57.678;11.910;2023-04-24T01:57:41;37.00;;;25.45;;
49962;SDS011;36180;57.678;11.910;2023-04-24T02:00:09;31.80;;;23.90;;
49962;SDS011;36180;57.678;11.910;2023-04-24T02:02:40;34.30;;;24.75;;
49962;SDS011;36180;57.678;11.910;2023-04-24T02:05:07;32.58;;;23.63;;
49962;SDS011;36180;57.678;11.910;2023-04-24T02:07:36;34.92;;;26.05;;
49962;SDS011;36180;57.678;11.910;2023-04-24T02:10:03;35.15;;;25.23;;
49962;SDS011;36180;57.678;11.910;2023-04-24T02:12:31;33.85;;;24.25;;
49962;SDS011;36180;57.678;11.910;2023-04-24T02:14:59;32.42;;;25.05;;
49962;SDS011;36180;57.678;11.910;2023-04-24T02:17:27;33.72;;;25.48;;
49962;SDS011;36180;57.678;11.910;2023-04-24T02:19:56;34.80;;;24.70;;
49962;SDS011;36180;57.678;11.910;2023-04-24T02:22:23;32.35;;;24.08;;
49962;SDS011;36180;57.678;11.910;2023-04-24T02:24:50;36.63;;;25.63;;
49962;SDS011;36180;57.678;11.910;2023-04-24T02:27:17;35.35;;;25.50;;
49962;SDS011;36180;57.678;11.910;2023-04-24T02:29:44;36.30;;;24.77;;
49962;SDS011;36180;57.678;11.910;2023-04-24T02:32:12;33.35;;;25.08;;
49962;SDS011;36180;57.678;11.910;2023-04-24T02:34:42;34.92;;;24.77;;
49962;SDS011;36180;57.678;11.910;2023-04-24T02:37:14;31.67;;;23.45;;
49962;SDS011;36180;57.678;11.910;2023-04-24T02:39:42;34.03;;;24.33;;
49962;SDS011;36180;57.678;11.910;2023-04-24T02:42:09;31.02;;;23.00;;
49962;SDS011;36180;57.678;11.910;2023-04-24T02:44:36;31.25;;;23.85;;
49962;SDS011;36180;57.678;11.910;2023-04-24T02:47:03;30.42;;;23.00;;
49962;SDS011;36180;57.678;11.910;2023-04-24T02:49:32;29.98;;;22.27;;
49962;SDS011;36180;57.678;11.910;2023-04-24T02:51:59;32.88;;;22.80;;
49962;SDS011;36180;57.678;11.910;2023-04-24T02:54:26;32.83;;;23.92;;
49962;SDS011;36180;57.678;11.910;2023-04-24T02:56:53;31.77;;;23.60;;
49962;SDS011;36180;57.678;11.910;2023-04-24T02:59:22;30.80;;;23.35;;
49962;SDS011;36180;57.678;11.910;2023-04-24T03:01:49;32.55;;;23.55;;
49962;SDS011;36180;57.678;11.910;2023-04-24T03:04:16;33.95;;;24.30;;
49962;SDS011;36180;57.678;11.910;2023-04-24T03:06:46;28.30;;;22.65;;
49962;SDS011;36180;57.678;11.910;2023-04-24T03:09:13;33.35;;;24.38;;
49962;SDS011;36180;57.678;11.910;2023-04-24T03:11:40;31.92;;;24.00;;
49962;SDS011;36180;57.678;11.910;2023-04-24T03:14:07;32.47;;;23.65;;
49962;SDS011;36180;57.678;11.910;2023-04-24T03:16:36;30.52;;;23.40;;
49962;SDS011;36180;57.678;11.910;2023-04-24T03:19:04;31.50;;;23.02;;
49962;SDS011;36180;57.678;11.910;2023-04-24T03:21:34;30.92;;;23.38;;
49962;SDS011;36180;57.678;11.910;2023-04-24T03:26:35;34.78;;;23.27;;
49962;SDS011;36180;57.678;11.910;2023-04-24T03:29:16;29.85;;;22.05;;
49962;SDS011;36180;57.678;11.910;2023-04-24T03:31:43;32.63;;;22.60;;
49962;SDS011;36180;57.678;11.910;2023-04-24T03:34:10;30.83;;;23.27;;
49962;SDS011;36180;57.678;11.910;2023-04-24T03:36:38;31.50;;;22.75;;
49962;SDS011;36180;57.678;11.910;2023-04-24T03:39:08;30.17;;;22.58;;
49962;SDS011;36180;57.678;11.910;2023-04-24T03:41:37;28.73;;;22.83;;
49962;SDS011;36180;57.678;11.910;2023-04-24T03:44:16;32.15;;;22.63;;
49962;SDS011;36180;57.678;11.910;2023-04-24T03:46:44;30.38;;;22.80;;
49962;SDS011;36180;57.678;11.910;2023-04-24T03:49:11;31.02;;;23.20;;
49962;SDS011;36180;57.678;11.910;2023-04-24T03:51:42;28.83;;;22.80;;
49962;SDS011;36180;57.678;11.910;2023-04-24T03:54:17;30.92;;;22.48;;
49962;SDS011;36180;57.678;11.910;2023-04-24T03:56:45;28.08;;;21.70;;
49962;SDS011;36180;57.678;11.910;2023-04-24T03:59:12;27.60;;;21.95;;
49962;SDS011;36180;57.678;11.910;2023-04-24T04:01:41;32.13;;;22.42;;
49962;SDS011;36180;57.678;11.910;2023-04-24T04:04:13;29.50;;;21.77;;
49962;SDS011;36180;57.678;11.910;2023-04-24T04:06:41;31.92;;;22.02;;
49962;SDS011;36180;57.678;11.910;2023-04-24T04:09:09;29.42;;;21.85;;
49962;SDS011;36180;57.678;11.910;2023-04-24T04:11:37;29.00;;;21.83;;
49962;SDS011;36180;57.678;11.910;2023-04-24T04:14:05;30.45;;;21.13;;
49962;SDS011;36180;57.678;11.910;2023-04-24T04:16:34;30.20;;;22.75;;
49962;SDS011;36180;57.678;11.910;2023-04-24T04:19:02;27.85;;;20.90;;
49962;SDS011;36180;57.678;11.910;2023-04-24T04:21:30;30.35;;;21.38;;
49962;SDS011;36180;57.678;11.910;2023-04-24T04:24:11;27.60;;;20.63;;
49962;SDS011;36180;57.678;11.910;2023-04-24T04:26:44;26.83;;;20.60;;
49962;SDS011;36180;57.678;11.910;2023-04-24T04:29:16;31.85;;;20.80;;
49962;SDS011;36180;57.678;11.910;2023-04-24T04:31:45;29.13;;;20.25;;
49962;SDS011;36180;57.678;11.910;2023-04-24T04:34:12;27.67;;;19.80;;
49962;SDS011;36180;57.678;11.910;2023-04-24T04:36:40;29.52;;;20.15;;
49962;SDS011;36180;57.678;11.910;2023-04-24T04:39:40;23.92;;;19.20;;
49962;SDS011;36180;57.678;11.910;2023-04-24T04:42:13;30.17;;;20.77;;
49962;SDS011;36180;57.678;11.910;2023-04-24T04:44:42;28.85;;;19.73;;
49962;SDS011;36180;57.678;11.910;2023-04-24T04:47:15;28.50;;;20.25;;
49962;SDS011;36180;57.678;11.910;2023-04-24T04:49:44;27.88;;;20.40;;
49962;SDS011;36180;57.678;11.910;2023-04-24T04:52:18;26.02;;;19.70;;
49962;SDS011;36180;57.678;11.910;2023-04-24T04:54:49;26.95;;;19.95;;
49962;SDS011;36180;57.678;11.910;2023-04-24T04:57:19;28.27;;;18.92;;
49962;SDS011;36180;57.678;11.910;2023-04-24T04:59:46;25.58;;;19.60;;
49962;SDS011;36180;57.678;11.910;2023-04-24T05:02:24;24.52;;;19.42;;
49962;SDS011;36180;57.678;11.910;2023-04-24T05:04:51;23.48;;;18.85;;
49962;SDS011;36180;57.678;11.910;2023-04-24T05:07:18;27.98;;;18.67;;
49962;SDS011;36180;57.678;11.910;2023-04-24T05:09:49;25.30;;;18.85;;
49962;SDS011;36180;57.678;11.910;2023-04-24T05:12:19;27.45;;;19.65;;
49962;SDS011;36180;57.678;11.910;2023-04-24T05:14:51;25.55;;;18.33;;
49962;SDS011;36180;57.678;11.910;2023-04-24T05:17:19;26.67;;;19.48;;
49962;SDS011;36180;57.678;11.910;2023-04-24T05:19:46;25.73;;;19.13;;
49962;SDS011;36180;57.678;11.910;2023-04-24T05:22:14;27.45;;;19.10;;
49962;SDS011;36180;57.678;11.910;2023-04-24T05:24:48;25.02;;;19.15;;
49962;SDS011;36180;57.678;11.910;2023-04-24T05:27:35;22.70;;;18.52;;
49962;SDS011;36180;57.678;11.910;2023-04-24T05:30:08;25.98;;;17.73;;
49962;SDS011;36180;57.678;11.910;2023-04-24T05:32:35;24.90;;;18.20;;
49962;SDS011;36180;57.678;11.910;2023-04-24T05:35:03;22.98;;;17.48;;
49962;SDS011;36180;57.678;11.910;2023-04-24T05:37:30;24.15;;;17.27;;
49962;SDS011;36180;57.678;11.910;2023-04-24T05:39:58;20.92;;;17.38;;
49962;SDS011;36180;57.678;11.910;2023-04-24T05:42:25;23.55;;;17.92;;
49962;SDS011;36180;57.678;11.910;2023-04-24T05:44:54;23.25;;;18.00;;
49962;SDS011;36180;57.678;11.910;2023-04-24T05:47:21;22.52;;;16.88;;
49962;SDS011;36180;57.678;11.910;2023-04-24T05:49:49;21.77;;;16.95;;
49962;SDS011;36180;57.678;11.910;2023-04-24T05:52:16;22.63;;;17.27;;
49962;SDS011;36180;57.678;11.910;2023-04-24T05:54:44;22.83;;;17.77;;
49962;SDS011;36180;57.678;11.910;2023-04-24T05:57:15;20.83;;;16.50;;
49962;SDS011;36180;57.678;11.910;2023-04-24T05:59:55;20.67;;;16.55;;
49962;SDS011;36180;57.678;11.910;2023-04-24T06:02:24;22.35;;;16.50;;
49962;SDS011;36180;57.678;11.910;2023-04-24T06:04:51;21.50;;;15.73;;
49962;SDS011;36180;57.678;11.910;2023-04-24T06:07:19;22.92;;;17.23;;
49962;SDS011;36180;57.678;11.910;2023-04-24T06:09:46;21.98;;;16.77;;
49962;SDS011;36180;57.678;11.910;2023-04-24T06:12:15;23.58;;;16.50;;
49962;SDS011;36180;57.678;11.910;2023-04-24T06:15:01;22.52;;;15.73;;
49962;SDS011;36180;57.678;11.910;2023-04-24T06:17:54;22.45;;;16.30;;
49962;SDS011;36180;57.678;11.910;2023-04-24T06:20:21;23.05;;;16.45;;
49962;SDS011;36180;57.678;11.910;2023-04-24T06:22:48;20.83;;;15.32;;
49962;SDS011;36180;57.678;11.910;2023-04-24T06:25:16;19.63;;;15.35;;
49962;SDS011;36180;57.678;11.910;2023-04-24T06:27:43;21.95;;;16.35;;
49962;SDS011;36180;57.678;11.910;2023-04-24T06:30:12;21.83;;;15.90;;
49962;SDS011;36180;57.678;11.910;2023-04-24T06:32:39;21.17;;;15.35;;
49962;SDS011;36180;57.678;11.910;2023-04-24T06:35:07;24.17;;;16.17;;
49962;SDS011;36180;57.678;11.910;2023-04-24T06:37:35;20.77;;;14.90;;
49962;SDS011;36180;57.678;11.910;2023-04-24T06:40:02;23.23;;;15.38;;
49962;SDS011;36180;57.678;11.910;2023-04-24T06:42:30;19.48;;;14.88;;
49962;SDS011;36180;57.678;11.910;2023-04-24T06:44:57;20.08;;;15.35;;
49962;SDS011;36180;57.678;11.910;2023-04-24T06:47:26;17.67;;;14.13;;
49962;SDS011;36180;57.678;11.910;2023-04-24T06:49:54;18.73;;;15.20;;
49962;SDS011;36180;57.678;11.910;2023-04-24T06:52:21;23.05;;;15.82;;
49962;SDS011;36180;57.678;11.910;2023-04-24T06:54:48;20.48;;;15.35;;
49962;SDS011;36180;57.678;11.910;2023-04-24T06:57:15;20.42;;;14.85;;
49962;SDS011;36180;57.678;11.910;2023-04-24T06:59:42;21.52;;;15.88;;
49962;SDS011;36180;57.678;11.910;2023-04-24T07:02:09;18.70;;;16.02;;
49962;SDS011;36180;57.678;11.910;2023-04-24T07:04:38;20.42;;;15.40;;
49962;SDS011;36180;57.678;11.910;2023-04-24T07:07:05;18.83;;;15.00;;
49962;SDS011;36180;57.678;11.910;2023-04-24T07:09:34;19.17;;;15.77;;
49962;SDS011;36180;57.678;11.910;2023-04-24T07:12:03;21.10;;;15.68;;
49962;SDS011;36180;57.678;11.910;2023-04-24T07:14:31;20.23;;;16.73;;
49962;SDS011;36180;57.678;11.910;2023-04-24T07:16:58;21.15;;;16.77;;
49962;SDS011;36180;57.678;11.910;2023-04-24T07:19:25;22.83;;;17.55;;
49962;SDS011;36180;57.678;11.910;2023-04-24T07:21:53;21.30;;;16.67;;
49962;SDS011;36180;57.678;11.910;2023-04-24T07:24:20;24.40;;;17.35;;
49962;SDS011;36180;57.678;11.910;2023-04-24T07:26:47;19.38;;;16.05;;
49962;SDS011;36180;57.678;11.910;2023-04-24T07:29:16;20.35;;;16.77;;
49962;SDS011;36180;57.678;11.910;2023-04-24T07:31:43;22.50;;;17.38;;
49962;SDS011;36180;57.678;11.910;2023-04-24T07:34:10;22.60;;;17.05;;
49962;SDS011;36180;57.678;11.910;2023-04-24T07:36:37;21.70;;;17.60;;
49962;SDS011;36180;57.678;11.910;2023-04-24T07:39:06;24.90;;;18.23;;
49962;SDS011;36180;57.678;11.910;2023-04-24T07:41:34;23.25;;;18.27;;
49962;SDS011;36180;57.678;11.910;2023-04-24T07:44:01;21.33;;;18.10;;
49962;SDS011;36180;57.678;11.910;2023-04-24T07:46:29;22.98;;;19.13;;
49962;SDS011;36180;57.678;11.910;2023-04-24T07:48:56;24.55;;;18.88;;
49962;SDS011;36180;57.678;11.910;2023-04-24T07:51:24;25.95;;;19.33;;
49962;SDS011;36180;57.678;11.910;2023-04-24T07:53:52;23.55;;;19.00;;
49962;SDS011;36180;57.678;11.910;2023-04-24T07:56:21;25.30;;;18.58;;
49962;SDS011;36180;57.678;11.910;2023-04-24T07:58:48;27.50;;;18.85;;
49962;SDS011;36180;57.678;11.910;2023-04-24T08:01:15;28.60;;;20.13;;
49962;SDS011;36180;57.678;11.910;2023-04-24T08:03:42;27.00;;;19.92;;
49962;SDS011;36180;57.678;11.910;2023-04-24T08:06:09;25.67;;;19.83;;
49962;SDS011;36180;57.678;11.910;2023-04-24T08:08:37;25.65;;;19.48;;
49962;SDS011;36180;57.678;11.910;2023-04-24T08:11:04;24.88;;;19.95;;
49962;SDS011;36180;57.678;11.910;2023-04-24T08:16:00;28.52;;;20.77;;
49962;SDS011;36180;57.678;11.910;2023-04-24T08:18:27;27.58;;;21.02;;
49962;SDS011;36180;57.678;11.910;2023-04-24T08:20:54;30.98;;;22.05;;
49962;SDS011;36180;57.678;11.910;2023-04-24T08:23:26;28.58;;;20.70;;
49962;SDS011;36180;57.678;11.910;2023-04-24T08:25:54;31.58;;;22.08;;
49962;SDS011;36180;57.678;11.910;2023-04-24T08:28:21;31.15;;;21.40;;
49962;SDS011;36180;57.678;11.910;2023-04-24T08:30:49;32.08;;;21.52;;
49962;SDS011;36180;57.678;11.910;2023-04-24T08:33:19;30.50;;;21.77;;
49962;SDS011;36180;57.678;11.910;2023-04-24T08:35:47;30.17;;;21.30;;
49962;SDS011;36180;57.678;11.910;2023-04-24T08:38:14;27.88;;;20.90;;
49962;SDS011;36180;57.678;11.910;2023-04-24T08:40:41;26.92;;;20.20;;
49962;SDS011;36180;57.678;11.910;2023-04-24T08:43:11;29.65;;;20.80;;
49962;SDS011;36180;57.678;11.910;2023-04-24T08:45:39;31.27;;;20.60;;
49962;SDS011;36180;57.678;11.910;2023-04-24T08:48:11;26.08;;;19.92;;
49962;SDS011;36180;57.678;11.910;2023-04-24T08:50:38;27.63;;;19.25;;
49962;SDS011;36180;57.678;11.910;2023-04-24T08:53:08;26.17;;;18.90;;
49962;SDS011;36180;57.678;11.910;2023-04-24T08:55:35;22.02;;;17.52;;
49962;SDS011;36180;57.678;11.910;2023-04-24T08:58:03;21.65;;;16.25;;
49962;SDS011;36180;57.678;11.910;2023-04-24T09:00:30;22.73;;;16.08;;
49962;SDS011;36180;57.678;11.910;2023-04-24T09:03:00;18.00;;;15.25;;
49962;SDS011;36180;57.678;11.910;2023-04-24T09:05:29;19.80;;;14.80;;
49962;SDS011;36180;57.678;11.910;2023-04-24T09:07:56;18.33;;;14.02;;
49962;SDS011;36180;57.678;11.910;2023-04-24T09:10:24;19.73;;;13.23;;
49962;SDS011;36180;57.678;11.910;2023-04-24T09:12:52;17.95;;;13.77;;
49962;SDS011;36180;57.678;11.910;2023-04-24T09:15:20;17.67;;;12.90;;
49962;SDS011;36180;57.678;11.910;2023-04-24T09:17:47;18.90;;;12.45;;
49962;SDS011;36180;57.678;11.910;2023-04-24T09:20:15;15.80;;;11.50;;
49962;SDS011;36180;57.678;11.910;2023-04-24T09:22:43;14.85;;;11.38;;
49962;SDS011;36180;57.678;11.910;2023-04-24T09:25:11;16.70;;;10.45;;
49962;SDS011;36180;57.678;11.910;2023-04-24T09:27:41;14.48;;;10.63;;
49962;SDS011;36180;57.678;11.910;2023-04-24T09:30:09;13.85;;;11.18;;
49962;SDS011;36180;57.678;11.910;2023-04-24T09:32:37;15.57;;;11.57;;
49962;SDS011;36180;57.678;11.910;2023-04-24T09:35:08;12.70;;;10.50;;
49962;SDS011;36180;57.678;11.910;2023-04-24T09:37:37;14.35;;;9.77;;
49962;SDS011;36180;57.678;11.910;2023-04-24T09:40:12;12.70;;;11.00;;
49962;SDS011;36180;57.678;11.910;2023-04-24T09:42:43;13.70;;;10.43;;
49962;SDS011;36180;57.678;11.910;2023-04-24T09:45:11;13.02;;;10.50;;
49962;SDS011;36180;57.678;11.910;2023-04-24T09:47:39;14.82;;;10.43;;
49962;SDS011;36180;57.678;11.910;2023-04-24T09:50:10;12.90;;;11.50;;
49962;SDS011;36180;57.678;11.910;2023-04-24T09:52:42;12.95;;;10.57;;
49962;SDS011;36180;57.678;11.910;2023-04-24T09:55:14;12.45;;;10.05;;
49962;SDS011;36180;57.678;11.910;2023-04-24T09:57:47;14.45;;;10.98;;
49962;SDS011;36180;57.678;11.910;2023-04-24T10:00:18;12.93;;;10.38;;
49962;SDS011;36180;57.678;11.910;2023-04-24T10:02:49;13.07;;;11.40;;
49962;SDS011;36180;57.678;11.910;2023-04-24T10:05:18;13.73;;;10.98;;
49962;SDS011;36180;57.678;11.910;2023-04-24T10:07:45;15.98;;;11.55;;
49962;SDS011;36180;57.678;11.910;2023-04-24T10:10:14;13.65;;;10.90;;
49962;SDS011;36180;57.678;11.910;2023-04-24T10:12:41;13.15;;;11.00;;
49962;SDS011;36180;57.678;11.910;2023-04-24T10:15:09;12.50;;;10.48;;
49962;SDS011;36180;57.678;11.910;2023-04-24T10:17:39;13.70;;;10.68;;
49962;SDS011;36180;57.678;11.910;2023-04-24T10:20:06;13.63;;;11.05;;
49962;SDS011;36180;57.678;11.910;2023-04-24T10:22:34;15.35;;;11.27;;
49962;SDS011;36180;57.678;11.910;2023-04-24T10:25:03;12.68;;;11.25;;
49962;SDS011;36180;57.678;11.910;2023-04-24T10:27:33;14.32;;;11.50;;
49962;SDS011;36180;57.678;11.910;2023-04-24T10:30:01;15.40;;;11.50;;
49962;SDS011;36180;57.678;11.910;2023-04-24T10:32:29;12.93;;;10.60;;
49962;SDS011;36180;57.678;11.910;2023-04-24T10:34:56;13.48;;;11.75;;
49962;SDS011;36180;57.678;11.910;2023-04-24T10:37:23;14.27;;;10.80;;
49962;SDS011;36180;57.678;11.910;2023-04-24T10:39:51;13.57;;;11.20;;
49962;SDS011;36180;57.678;11.910;2023-04-24T10:42:19;13.23;;;11.38;;
49962;SDS011;36180;57.678;11.910;2023-04-24T10:44:48;14.75;;;11.40;;
49962;SDS011;36180;57.678;11.910;2023-04-24T10:47:15;16.58;;;12.23;;
49962;SDS011;36180;57.678;11.910;2023-04-24T10:49:42;14.30;;;11.43;;
49962;SDS011;36180;57.678;11.910;2023-04-24T10:52:10;13.93;;;10.70;;
49962;SDS011;36180;57.678;11.910;2023-04-24T10:54:41;11.77;;;10.32;;
49962;SDS011;36180;57.678;11.910;2023-04-24T10:57:26;13.73;;;10.73;;
49962;SDS011;36180;57.678;11.910;2023-04-24T11:02:45;11.57;;;10.13;;
49962;SDS011;36180;57.678;11.910;2023-04-24T11:05:15;11.05;;;9.60;;
49962;SDS011;36180;57.678;11.910;2023-04-24T11:10:43;11.55;;;9.38;;
49962;SDS011;36180;57.678;11.910;2023-04-24T11:15:42;11.15;;;9.23;;
49962;SDS011;36180;57.678;11.910;2023-04-24T11:18:12;10.65;;;9.50;;
49962;SDS011;36180;57.678;11.910;2023-04-24T11:20:41;13.13;;;10.18;;
49962;SDS011;36180;57.678;11.910;2023-04-24T11:23:09;11.40;;;9.30;;
49962;SDS011;36180;57.678;11.910;2023-04-24T11:25:39;11.20;;;10.02;;
49962;SDS011;36180;57.678;11.910;2023-04-24T11:28:06;11.32;;;9.45;;
49962;SDS011;36180;57.678;11.910;2023-04-24T11:30:33;10.80;;;9.00;;
49962;SDS011;36180;57.678;11.910;2023-04-24T11:33:05;10.00;;;8.52;;
49962;SDS011;36180;57.678;11.910;2023-04-24T11:35:40;9.90;;;8.38;;
49962;SDS011;36180;57.678;11.910;2023-04-24T11:38:07;11.15;;;8.00;;
49962;SDS011;36180;57.678;11.910;2023-04-24T11:40:34;9.88;;;7.43;;
49962;SDS011;36180;57.678;11.910;2023-04-24T11:43:01;8.52;;;7.65;;
49962;SDS011;36180;57.678;11.910;2023-04-24T11:45:30;8.75;;;7.85;;
49962;SDS011;36180;57.678;11.910;2023-04-24T11:47:57;11.95;;;8.90;;
49962;SDS011;36180;57.678;11.910;2023-04-24T11:50:26;9.98;;;7.82;;
49962;SDS011;36180;57.678;11.910;2023-04-24T11:52:54;9.25;;;8.30;;
49962;SDS011;36180;57.678;11.910;2023-04-24T11:55:26;8.77;;;7.40;;
49962;SDS011;36180;57.678;11.910;2023-04-24T11:57:54;8.43;;;7.50;;
49962;SDS011;36180;57.678;11.910;2023-04-24T12:00:23;8.43;;;7.57;;
49962;SDS011;36180;57.678;11.910;2023-04-24T12:02:51;9.07;;;6.80;;
49962;SDS011;36180;57.678;11.910;2023-04-24T12:05:27;9.35;;;8.00;;
49962;SDS011;36180;57.678;11.910;2023-04-24T12:07:56;8.38;;;7.38;;
49962;SDS011;36180;57.678;11.910;2023-04-24T12:10:23;7.78;;;6.70;;
49962;SDS011;36180;57.678;11.910;2023-04-24T12:12:51;11.13;;;6.78;;
49962;SDS011;36180;57.678;11.910;2023-04-24T12:15:19;7.38;;;6.60;;
49962;SDS011;36180;57.678;11.910;2023-04-24T12:17:47;8.07;;;7.30;;
49962;SDS011;36180;57.678;11.910;2023-04-24T12:20:15;7.60;;;6.80;;
49962;SDS011;36180;57.678;11.910;2023-04-24T12:22:47;8.13;;;6.30;;
49962;SDS011;36180;57.678;11.910;2023-04-24T12:25:19;7.03;;;6.30;;
49962;SDS011;36180;57.678;11.910;2023-04-24T12:27:46;8.25;;;6.80;;
49962;SDS011;36180;57.678;11.910;2023-04-24T12:30:19;7.03;;;6.18;;
49962;SDS011;36180;57.678;11.910;2023-04-24T12:32:48;7.18;;;6.25;;
49962;SDS011;36180;57.678;11.910;2023-04-24T12:35:18;8.43;;;6.32;;
49962;SDS011;36180;57.678;11.910;2023-04-24T12:37:47;7.65;;;6.20;;
49962;SDS011;36180;57.678;11.910;2023-04-24T12:40:14;6.85;;;5.68;;
49962;SDS011;36180;57.678;11.910;2023-04-24T12:42:43;9.23;;;6.45;;
49962;SDS011;36180;57.678;11.910;2023-04-24T12:45:11;9.82;;;6.20;;
49962;SDS011;36180;57.678;11.910;2023-04-24T12:47:39;9.93;;;6.72;;
49962;SDS011;36180;57.678;11.910;2023-04-24T12:50:07;7.93;;;6.03;;
49962;SDS011;36180;57.678;11.910;2023-04-24T12:52:35;6.95;;;6.25;;
49962;SDS011;36180;57.678;11.910;2023-04-24T12:55:05;6.65;;;5.93;;
49962;SDS011;36180;57.678;11.910;2023-04-24T12:57:33;7.95;;;6.13;;
49962;SDS011;36180;57.678;11.910;2023-04-24T13:00:01;6.30;;;5.63;;
49962;SDS011;36180;57.678;11.910;2023-04-24T13:02:29;7.85;;;5.30;;
49962;SDS011;36180;57.678;11.910;2023-04-24T13:04:57;7.18;;;5.40;;
49962;SDS011;36180;57.678;11.910;2023-04-24T13:07:24;6.20;;;5.60;;
49962;SDS011;36180;57.678;11.910;2023-04-24T13:09:51;6.32;;;5.15;;
49962;SDS011;36180;57.678;11.910;2023-04-24T13:12:20;7.43;;;5.32;;
49962;SDS011;36180;57.678;11.910;2023-04-24T13:14:49;6.15;;;5.55;;
49962;SDS011;36180;57.678;11.910;2023-04-24T13:17:16;7.00;;;5.50;;
49962;SDS011;36180;57.678;11.910;2023-04-24T13:19:43;7.65;;;5.68;;
49962;SDS011;36180;57.678;11.910;2023-04-24T13:22:11;8.85;;;5.65;;
49962;SDS011;36180;57.678;11.910;2023-04-24T13:24:38;6.30;;;5.70;;
49962;SDS011;36180;57.678;11.910;2023-04-24T13:27:06;7.07;;;5.63;;
49962;SDS011;36180;57.678;11.910;2023-04-24T13:29:35;6.22;;;5.63;;
49962;SDS011;36180;57.678;11.910;2023-04-24T13:32:04;6.35;;;5.72;;
49962;SDS011;36180;57.678;11.910;2023-04-24T13:34:46;7.70;;;6.05;;
49962;SDS011;36180;57.678;11.910;2023-04-24T13:37:13;8.10;;;6.15;;
49962;SDS011;36180;57.678;11.910;2023-04-24T13:39:40;8.43;;;6.57;;
49962;SDS011;36180;57.678;11.910;2023-04-24T13:42:07;9.05;;;6.90;;
49962;SDS011;36180;57.678;11.910;2023-04-24T13:44:36;9.15;;;6.68;;
49962;SDS011;36180;57.678;11.910;2023-04-24T13:47:04;7.88;;;7.07;;
49962;SDS011;36180;57.678;11.910;2023-04-24T13:49:31;9.32;;;6.95;;
49962;SDS011;36180;57.678;11.910;2023-04-24T13:51:58;9.10;;;7.47;;
49962;SDS011;36180;57.678;11.910;2023-04-24T13:54:25;9.20;;;7.93;;
49962;SDS011;36180;57.678;11.910;2023-04-24T13:56:52;8.30;;;7.00;;
49962;SDS011;36180;57.678;11.910;2023-04-24T13:59:20;9.75;;;7.85;;
49962;SDS011;36180;57.678;11.910;2023-04-24T14:01:48;10.18;;;8.10;;
49962;SDS011;36180;57.678;11.910;2023-04-24T14:04:16;10.00;;;8.60;;
49962;SDS011;36180;57.678;11.910;2023-04-24T14:06:43;11.30;;;8.95;;
49962;SDS011;36180;57.678;11.910;2023-04-24T14:09:10;10.38;;;8.68;;
49962;SDS011;36180;57.678;11.910;2023-04-24T14:11:37;13.15;;;9.40;;
49962;SDS011;36180;57.678;11.910;2023-04-24T14:14:05;11.95;;;8.75;;
49962;SDS011;36180;57.678;11.910;2023-04-24T14:16:32;10.57;;;8.75;;
49962;SDS011;36180;57.678;11.910;2023-04-24T14:19:01;12.85;;;9.35;;
49962;SDS011;36180;57.678;11.910;2023-04-24T14:21:30;10.75;;;9.38;;
49962;SDS011;36180;57.678;11.910;2023-04-24T14:23:57;11.50;;;9.00;;
49962;SDS011;36180;57.678;11.910;2023-04-24T14:26:24;13.35;;;8.82;;
49962;SDS011;36180;57.678;11.910;2023-04-24T14:28:51;10.35;;;8.98;;
49962;SDS011;36180;57.678;11.910;2023-04-24T14:31:20;11.82;;;9.05;;
49962;SDS011;36180;57.678;11.910;2023-04-24T14:33:47;12.98;;;9.38;;
49962;SDS011;36180;57.678;11.910;2023-04-24T14:36:15;10.32;;;8.80;;
49962;SDS011;36180;57.678;11.910;2023-04-24T14:38:42;14.27;;;9.75;;